sensor_id;sensor_type;location;lat;lon;timestamp;temperature;humidity
16404;DHT22;8311;50.158;8.642;2022-08-03T00:01:31;27.30;43.20
16404;DHT22;8311;50.158;8.642;2022-08-03T00:04:27;27.30;43.20
16404;DHT22;8311;50.158;8.642;2022-08-03T00:07:25;27.20;43.10
16404;DHT22;8311;50.158;8.642;2022-08-03T00:10:21;27.20;43.10
16404;DHT22;8311;50.158;8.642;2022-08-03T00:13:14;27.20;43.70
16404;DHT22;8311;50.158;8.642;2022-08-03T00:16:08;27.20;43.10
16404;DHT22;8311;50.158;8.642;2022-08-03T00:19:02;27.30;43.20
16404;DHT22;8311;50.158;8.642;2022-08-03T00:21:57;27.20;43.10
16404;DHT22;8311;50.158;8.642;2022-08-03T00:24:52;27.30;43.20
16404;DHT22;8311;50.158;8.642;2022-08-03T00:27:46;27.30;43.20
16404;DHT22;8311;50.158;8.642;2022-08-03T00:30:41;27.30;43.20
16404;DHT22;8311;50.158;8.642;2022-08-03T00:33:35;27.30;43.20
16404;DHT22;8311;50.158;8.642;2022-08-03T00:36:48;27.30;43.20
16404;DHT22;8311;50.158;8.642;2022-08-03T00:39:43;27.30;43.20
16404;DHT22;8311;50.158;8.642;2022-08-03T00:42:49;27.20;43.10
16404;DHT22;8311;50.158;8.642;2022-08-03T00:45:44;27.20;43.10
16404;DHT22;8311;50.158;8.642;2022-08-03T00:48:41;27.30;43.20
16404;DHT22;8311;50.158;8.642;2022-08-03T00:51:34;27.20;43.10
16404;DHT22;8311;50.158;8.642;2022-08-03T00:54:29;27.20;43.10
16404;DHT22;8311;50.158;8.642;2022-08-03T00:57:24;27.20;43.10
16404;DHT22;8311;50.158;8.642;2022-08-03T01:00:19;27.30;43.20
16404;DHT22;8311;50.158;8.642;2022-08-03T01:03:13;27.30;43.20
16404;DHT22;8311;50.158;8.642;2022-08-03T01:06:14;27.20;43.10
16404;DHT22;8311;50.158;8.642;2022-08-03T01:09:12;27.30;43.20
16404;DHT22;8311;50.158;8.642;2022-08-03T01:12:15;27.30;43.20
16404;DHT22;8311;50.158;8.642;2022-08-03T01:15:16;27.20;43.10
16404;DHT22;8311;50.158;8.642;2022-08-03T01:18:17;27.20;43.10
16404;DHT22;8311;50.158;8.642;2022-08-03T01:21:15;27.20;43.80
16404;DHT22;8311;50.158;8.642;2022-08-03T01:24:20;27.20;43.10
16404;DHT22;8311;50.158;8.642;2022-08-03T01:27:22;27.30;43.20
16404;DHT22;8311;50.158;8.642;2022-08-03T01:30:19;27.20;43.10
16404;DHT22;8311;50.158;8.642;2022-08-03T01:33:16;27.20;43.10
16404;DHT22;8311;50.158;8.642;2022-08-03T01:36:13;27.20;43.10
16404;DHT22;8311;50.158;8.642;2022-08-03T01:39:07;27.30;43.20
16404;DHT22;8311;50.158;8.642;2022-08-03T01:42:05;27.20;43.10
16404;DHT22;8311;50.158;8.642;2022-08-03T01:45:00;27.30;43.20
16404;DHT22;8311;50.158;8.642;2022-08-03T01:47:55;27.20;43.10
16404;DHT22;8311;50.158;8.642;2022-08-03T01:50:50;27.20;43.10
16404;DHT22;8311;50.158;8.642;2022-08-03T01:53:44;27.20;43.10
16404;DHT22;8311;50.158;8.642;2022-08-03T01:56:39;27.30;43.20
16404;DHT22;8311;50.158;8.642;2022-08-03T01:59:35;27.30;43.20
16404;DHT22;8311;50.158;8.642;2022-08-03T02:02:30;27.20;43.10
16404;DHT22;8311;50.158;8.642;2022-08-03T02:05:29;27.20;43.10
16404;DHT22;8311;50.158;8.642;2022-08-03T02:08:26;27.20;43.10
16404;DHT22;8311;50.158;8.642;2022-08-03T02:11:21;27.20;43.10
16404;DHT22;8311;50.158;8.642;2022-08-03T02:14:15;27.30;43.20
16404;DHT22;8311;50.158;8.642;2022-08-03T02:17:09;27.20;43.10
16404;DHT22;8311;50.158;8.642;2022-08-03T02:20:06;27.20;43.10
16404;DHT22;8311;50.158;8.642;2022-08-03T02:23:02;27.30;43.20
16404;DHT22;8311;50.158;8.642;2022-08-03T02:25:57;27.30;43.20
16404;DHT22;8311;50.158;8.642;2022-08-03T02:28:55;27.30;43.30
16404;DHT22;8311;50.158;8.642;2022-08-03T02:31:56;27.30;43.20
16404;DHT22;8311;50.158;8.642;2022-08-03T02:34:52;27.30;43.30
16404;DHT22;8311;50.158;8.642;2022-08-03T02:37:51;27.30;43.30
16404;DHT22;8311;50.158;8.642;2022-08-03T02:40:48;27.20;43.20
16404;DHT22;8311;50.158;8.642;2022-08-03T02:43:44;27.20;43.20
16404;DHT22;8311;50.158;8.642;2022-08-03T02:47:01;27.30;43.20
16404;DHT22;8311;50.158;8.642;2022-08-03T02:49:56;27.30;43.30
16404;DHT22;8311;50.158;8.642;2022-08-03T02:52:52;27.30;43.30
16404;DHT22;8311;50.158;8.642;2022-08-03T02:55:48;27.20;43.30
16404;DHT22;8311;50.158;8.642;2022-08-03T02:58:43;27.30;43.30
16404;DHT22;8311;50.158;8.642;2022-08-03T03:01:37;27.20;43.20
16404;DHT22;8311;50.158;8.642;2022-08-03T03:04:31;27.20;43.20
16404;DHT22;8311;50.158;8.642;2022-08-03T03:07:25;27.30;43.30
16404;DHT22;8311;50.158;8.642;2022-08-03T03:10:22;27.20;43.20
16404;DHT22;8311;50.158;8.642;2022-08-03T03:13:18;27.30;43.30
16404;DHT22;8311;50.158;8.642;2022-08-03T03:16:13;27.30;43.30
16404;DHT22;8311;50.158;8.642;2022-08-03T03:19:11;27.30;43.30
16404;DHT22;8311;50.158;8.642;2022-08-03T03:22:06;27.30;43.30
16404;DHT22;8311;50.158;8.642;2022-08-03T03:25:00;27.30;43.30
16404;DHT22;8311;50.158;8.642;2022-08-03T03:27:55;27.20;43.20
16404;DHT22;8311;50.158;8.642;2022-08-03T03:30:52;27.20;43.20
16404;DHT22;8311;50.158;8.642;2022-08-03T03:33:46;27.20;43.20
16404;DHT22;8311;50.158;8.642;2022-08-03T03:36:39;27.20;43.20
16404;DHT22;8311;50.158;8.642;2022-08-03T03:39:32;27.20;43.20
16404;DHT22;8311;50.158;8.642;2022-08-03T03:42:26;27.20;43.20
16404;DHT22;8311;50.158;8.642;2022-08-03T03:45:20;27.20;43.20
16404;DHT22;8311;50.158;8.642;2022-08-03T03:48:16;27.20;43.20
16404;DHT22;8311;50.158;8.642;2022-08-03T03:51:11;27.20;43.20
16404;DHT22;8311;50.158;8.642;2022-08-03T03:54:04;27.20;43.20
16404;DHT22;8311;50.158;8.642;2022-08-03T03:56:58;27.20;43.10
16404;DHT22;8311;50.158;8.642;2022-08-03T03:59:51;27.20;43.20
16404;DHT22;8311;50.158;8.642;2022-08-03T04:02:45;27.20;43.10
16404;DHT22;8311;50.158;8.642;2022-08-03T04:05:40;27.20;43.10
16404;DHT22;8311;50.158;8.642;2022-08-03T04:08:50;27.20;43.10
16404;DHT22;8311;50.158;8.642;2022-08-03T04:12:06;27.20;43.10
16404;DHT22;8311;50.158;8.642;2022-08-03T04:15:00;27.20;43.10
16404;DHT22;8311;50.158;8.642;2022-08-03T04:17:55;27.20;43.10
16404;DHT22;8311;50.158;8.642;2022-08-03T04:20:51;27.20;43.10
16404;DHT22;8311;50.158;8.642;2022-08-03T04:23:48;27.20;43.10
16404;DHT22;8311;50.158;8.642;2022-08-03T04:26:44;27.20;43.10
16404;DHT22;8311;50.158;8.642;2022-08-03T04:29:45;27.20;43.10
16404;DHT22;8311;50.158;8.642;2022-08-03T04:32:40;27.30;43.20
16404;DHT22;8311;50.158;8.642;2022-08-03T04:35:36;27.20;43.10
16404;DHT22;8311;50.158;8.642;2022-08-03T04:39:01;27.20;43.10
16404;DHT22;8311;50.158;8.642;2022-08-03T04:41:59;27.20;43.10
16404;DHT22;8311;50.158;8.642;2022-08-03T04:45:02;27.20;43.10
16404;DHT22;8311;50.158;8.642;2022-08-03T04:47:56;27.20;43.10
16404;DHT22;8311;50.158;8.642;2022-08-03T04:50:54;27.20;43.10
16404;DHT22;8311;50.158;8.642;2022-08-03T04:53:47;27.20;43.10
16404;DHT22;8311;50.158;8.642;2022-08-03T04:56:42;27.20;43.10
16404;DHT22;8311;50.158;8.642;2022-08-03T04:59:39;27.20;43.10
16404;DHT22;8311;50.158;8.642;2022-08-03T05:02:32;27.20;43.10
16404;DHT22;8311;50.158;8.642;2022-08-03T05:05:26;27.20;43.10
16404;DHT22;8311;50.158;8.642;2022-08-03T05:08:40;27.20;43.10
16404;DHT22;8311;50.158;8.642;2022-08-03T05:11:43;27.30;43.20
16404;DHT22;8311;50.158;8.642;2022-08-03T05:14:37;27.20;43.10
16404;DHT22;8311;50.158;8.642;2022-08-03T05:17:30;27.20;43.10
16404;DHT22;8311;50.158;8.642;2022-08-03T05:20:24;27.20;43.10
16404;DHT22;8311;50.158;8.642;2022-08-03T05:23:18;27.20;43.10
16404;DHT22;8311;50.158;8.642;2022-08-03T05:26:11;27.20;43.10
16404;DHT22;8311;50.158;8.642;2022-08-03T05:29:06;27.20;43.10
16404;DHT22;8311;50.158;8.642;2022-08-03T05:31:59;27.20;43.10
16404;DHT22;8311;50.158;8.642;2022-08-03T05:35:08;27.20;43.10
16404;DHT22;8311;50.158;8.642;2022-08-03T05:38:22;27.20;43.10
16404;DHT22;8311;50.158;8.642;2022-08-03T05:41:24;27.20;43.10
16404;DHT22;8311;50.158;8.642;2022-08-03T05:44:29;27.20;43.10
16404;DHT22;8311;50.158;8.642;2022-08-03T05:47:22;27.20;43.10
16404;DHT22;8311;50.158;8.642;2022-08-03T05:50:17;27.20;43.10
16404;DHT22;8311;50.158;8.642;2022-08-03T05:53:11;27.20;43.10
16404;DHT22;8311;50.158;8.642;2022-08-03T05:56:07;27.20;43.10
16404;DHT22;8311;50.158;8.642;2022-08-03T05:59:06;27.20;43.10
16404;DHT22;8311;50.158;8.642;2022-08-03T06:02:21;27.20;43.10
16404;DHT22;8311;50.158;8.642;2022-08-03T06:05:15;27.20;43.10
16404;DHT22;8311;50.158;8.642;2022-08-03T06:08:07;27.20;43.10
16404;DHT22;8311;50.158;8.642;2022-08-03T06:11:06;27.20;43.10
16404;DHT22;8311;50.158;8.642;2022-08-03T06:14:00;27.20;43.10
16404;DHT22;8311;50.158;8.642;2022-08-03T06:16:52;27.20;43.10
16404;DHT22;8311;50.158;8.642;2022-08-03T06:19:47;27.20;43.10
16404;DHT22;8311;50.158;8.642;2022-08-03T06:22:42;27.20;43.10
16404;DHT22;8311;50.158;8.642;2022-08-03T06:25:42;27.20;43.00
16404;DHT22;8311;50.158;8.642;2022-08-03T06:28:35;27.20;43.00
16404;DHT22;8311;50.158;8.642;2022-08-03T06:31:44;27.20;43.10
16404;DHT22;8311;50.158;8.642;2022-08-03T06:34:38;27.20;43.10
16404;DHT22;8311;50.158;8.642;2022-08-03T06:37:42;27.20;43.00
16404;DHT22;8311;50.158;8.642;2022-08-03T06:40:37;27.20;43.00
16404;DHT22;8311;50.158;8.642;2022-08-03T06:43:31;27.20;43.00
16404;DHT22;8311;50.158;8.642;2022-08-03T06:46:26;27.20;43.00
16404;DHT22;8311;50.158;8.642;2022-08-03T06:49:20;27.20;43.10
16404;DHT22;8311;50.158;8.642;2022-08-03T06:52:13;27.20;43.00
16404;DHT22;8311;50.158;8.642;2022-08-03T06:55:28;27.20;43.00
16404;DHT22;8311;50.158;8.642;2022-08-03T06:58:21;27.20;43.00
16404;DHT22;8311;50.158;8.642;2022-08-03T07:01:15;27.20;42.90
16404;DHT22;8311;50.158;8.642;2022-08-03T07:04:10;27.20;42.90
16404;DHT22;8311;50.158;8.642;2022-08-03T07:07:03;27.20;43.00
16404;DHT22;8311;50.158;8.642;2022-08-03T07:09:56;27.20;42.90
16404;DHT22;8311;50.158;8.642;2022-08-03T07:12:50;27.20;42.90
16404;DHT22;8311;50.158;8.642;2022-08-03T07:15:47;27.20;42.90
16404;DHT22;8311;50.158;8.642;2022-08-03T07:18:46;27.20;42.90
16404;DHT22;8311;50.158;8.642;2022-08-03T07:21:40;27.20;42.90
16404;DHT22;8311;50.158;8.642;2022-08-03T07:24:33;27.20;42.90
16404;DHT22;8311;50.158;8.642;2022-08-03T07:27:27;27.20;42.90
16404;DHT22;8311;50.158;8.642;2022-08-03T07:30:22;27.20;42.90
16404;DHT22;8311;50.158;8.642;2022-08-03T07:33:16;27.20;42.90
16404;DHT22;8311;50.158;8.642;2022-08-03T07:36:10;27.20;42.90
16404;DHT22;8311;50.158;8.642;2022-08-03T07:39:04;27.20;42.90
16404;DHT22;8311;50.158;8.642;2022-08-03T07:42:09;27.20;42.90
16404;DHT22;8311;50.158;8.642;2022-08-03T07:45:03;27.20;43.00
16404;DHT22;8311;50.158;8.642;2022-08-03T07:47:58;27.20;42.90
16404;DHT22;8311;50.158;8.642;2022-08-03T07:50:51;27.20;43.50
16404;DHT22;8311;50.158;8.642;2022-08-03T07:53:45;27.20;42.90
16404;DHT22;8311;50.158;8.642;2022-08-03T07:56:39;27.20;42.90
16404;DHT22;8311;50.158;8.642;2022-08-03T07:59:32;27.20;43.00
16404;DHT22;8311;50.158;8.642;2022-08-03T08:02:45;27.20;42.90
16404;DHT22;8311;50.158;8.642;2022-08-03T08:05:40;27.20;42.90
16404;DHT22;8311;50.158;8.642;2022-08-03T08:08:34;27.30;43.00
16404;DHT22;8311;50.158;8.642;2022-08-03T08:11:28;27.30;42.90
16404;DHT22;8311;50.158;8.642;2022-08-03T08:14:21;27.30;43.00
16404;DHT22;8311;50.158;8.642;2022-08-03T08:17:14;27.30;42.90
16404;DHT22;8311;50.158;8.642;2022-08-03T08:20:09;27.30;42.90
16404;DHT22;8311;50.158;8.642;2022-08-03T08:23:06;27.30;42.90
16404;DHT22;8311;50.158;8.642;2022-08-03T08:26:19;27.30;42.90
16404;DHT22;8311;50.158;8.642;2022-08-03T08:29:13;27.30;42.90
16404;DHT22;8311;50.158;8.642;2022-08-03T08:32:06;27.30;42.90
16404;DHT22;8311;50.158;8.642;2022-08-03T08:35:02;27.30;42.90
16404;DHT22;8311;50.158;8.642;2022-08-03T08:37:55;27.30;42.90
16404;DHT22;8311;50.158;8.642;2022-08-03T08:40:58;27.30;42.90
16404;DHT22;8311;50.158;8.642;2022-08-03T08:43:52;27.30;42.90
16404;DHT22;8311;50.158;8.642;2022-08-03T08:46:52;27.30;43.00
16404;DHT22;8311;50.158;8.642;2022-08-03T08:49:51;27.30;42.90
16404;DHT22;8311;50.158;8.642;2022-08-03T08:53:02;27.40;43.00
16404;DHT22;8311;50.158;8.642;2022-08-03T08:56:03;27.30;42.90
16404;DHT22;8311;50.158;8.642;2022-08-03T08:58:58;27.30;42.90
16404;DHT22;8311;50.158;8.642;2022-08-03T09:01:55;27.40;43.00
16404;DHT22;8311;50.158;8.642;2022-08-03T09:04:48;27.40;43.00
16404;DHT22;8311;50.158;8.642;2022-08-03T09:07:43;27.40;43.00
16404;DHT22;8311;50.158;8.642;2022-08-03T09:10:36;27.40;43.00
16404;DHT22;8311;50.158;8.642;2022-08-03T09:13:32;27.40;43.00
16404;DHT22;8311;50.158;8.642;2022-08-03T09:16:25;27.40;42.90
16404;DHT22;8311;50.158;8.642;2022-08-03T09:19:19;27.40;42.90
16404;DHT22;8311;50.158;8.642;2022-08-03T09:22:14;27.40;43.00
16404;DHT22;8311;50.158;8.642;2022-08-03T09:25:10;27.40;42.90
16404;DHT22;8311;50.158;8.642;2022-08-03T09:28:17;27.40;42.90
16404;DHT22;8311;50.158;8.642;2022-08-03T09:31:32;27.40;42.90
16404;DHT22;8311;50.158;8.642;2022-08-03T09:34:26;27.40;42.90
16404;DHT22;8311;50.158;8.642;2022-08-03T09:37:20;27.40;42.90
16404;DHT22;8311;50.158;8.642;2022-08-03T09:40:36;27.40;42.90
16404;DHT22;8311;50.158;8.642;2022-08-03T09:43:44;27.40;42.90
16404;DHT22;8311;50.158;8.642;2022-08-03T09:46:51;27.50;43.00
16404;DHT22;8311;50.158;8.642;2022-08-03T09:49:56;27.50;43.00
16404;DHT22;8311;50.158;8.642;2022-08-03T09:52:50;27.50;43.00
16404;DHT22;8311;50.158;8.642;2022-08-03T09:55:54;27.50;43.00
16404;DHT22;8311;50.158;8.642;2022-08-03T09:59:08;27.50;42.90
16404;DHT22;8311;50.158;8.642;2022-08-03T10:02:03;27.50;42.90
16404;DHT22;8311;50.158;8.642;2022-08-03T10:04:55;27.50;42.90
16404;DHT22;8311;50.158;8.642;2022-08-03T10:07:49;27.50;42.90
16404;DHT22;8311;50.158;8.642;2022-08-03T10:10:43;27.50;42.90
16404;DHT22;8311;50.158;8.642;2022-08-03T10:13:37;27.50;43.60
16404;DHT22;8311;50.158;8.642;2022-08-03T10:16:32;27.50;42.90
16404;DHT22;8311;50.158;8.642;2022-08-03T10:19:27;27.50;42.90
16404;DHT22;8311;50.158;8.642;2022-08-03T10:22:23;27.50;42.90
16404;DHT22;8311;50.158;8.642;2022-08-03T10:25:16;27.60;43.00
16404;DHT22;8311;50.158;8.642;2022-08-03T10:28:14;27.60;43.20
16404;DHT22;8311;50.158;8.642;2022-08-03T10:31:08;27.60;43.00
16404;DHT22;8311;50.158;8.642;2022-08-03T10:34:04;27.60;43.00
16404;DHT22;8311;50.158;8.642;2022-08-03T10:37:00;27.60;42.90
16404;DHT22;8311;50.158;8.642;2022-08-03T10:39:57;27.60;42.90
16404;DHT22;8311;50.158;8.642;2022-08-03T10:42:54;27.60;43.00
16404;DHT22;8311;50.158;8.642;2022-08-03T10:45:49;27.60;42.90
16404;DHT22;8311;50.158;8.642;2022-08-03T10:48:43;27.60;42.90
16404;DHT22;8311;50.158;8.642;2022-08-03T10:51:37;27.60;42.90
16404;DHT22;8311;50.158;8.642;2022-08-03T10:54:40;27.60;42.90
16404;DHT22;8311;50.158;8.642;2022-08-03T10:57:50;27.60;42.90
16404;DHT22;8311;50.158;8.642;2022-08-03T11:00:49;27.60;42.90
16404;DHT22;8311;50.158;8.642;2022-08-03T11:04:13;27.60;42.90
16404;DHT22;8311;50.158;8.642;2022-08-03T11:07:20;27.60;42.90
16404;DHT22;8311;50.158;8.642;2022-08-03T11:10:30;27.60;42.90
16404;DHT22;8311;50.158;8.642;2022-08-03T11:13:25;27.60;42.90
16404;DHT22;8311;50.158;8.642;2022-08-03T11:16:22;27.60;42.90
16404;DHT22;8311;50.158;8.642;2022-08-03T11:19:18;27.60;42.80
16404;DHT22;8311;50.158;8.642;2022-08-03T11:22:19;27.70;42.90
16404;DHT22;8311;50.158;8.642;2022-08-03T11:25:13;27.70;42.90
16404;DHT22;8311;50.158;8.642;2022-08-03T11:28:28;27.70;42.90
16404;DHT22;8311;50.158;8.642;2022-08-03T11:31:44;27.70;42.90
16404;DHT22;8311;50.158;8.642;2022-08-03T11:35:05;27.70;42.90
16404;DHT22;8311;50.158;8.642;2022-08-03T11:38:07;27.70;43.50
16404;DHT22;8311;50.158;8.642;2022-08-03T11:41:01;27.70;42.90
16404;DHT22;8311;50.158;8.642;2022-08-03T11:43:55;27.70;42.90
16404;DHT22;8311;50.158;8.642;2022-08-03T11:46:51;27.70;42.80
16404;DHT22;8311;50.158;8.642;2022-08-03T11:49:46;27.70;42.90
16404;DHT22;8311;50.158;8.642;2022-08-03T11:52:40;27.70;42.80
16404;DHT22;8311;50.158;8.642;2022-08-03T11:55:34;27.70;42.80
16404;DHT22;8311;50.158;8.642;2022-08-03T11:58:32;27.70;42.90
16404;DHT22;8311;50.158;8.642;2022-08-03T12:01:47;27.70;42.80
16404;DHT22;8311;50.158;8.642;2022-08-03T12:04:50;27.80;42.90
16404;DHT22;8311;50.158;8.642;2022-08-03T12:07:45;27.80;42.90
16404;DHT22;8311;50.158;8.642;2022-08-03T12:10:59;27.80;42.90
16404;DHT22;8311;50.158;8.642;2022-08-03T12:13:53;27.80;42.90
16404;DHT22;8311;50.158;8.642;2022-08-03T12:17:07;27.70;42.80
16404;DHT22;8311;50.158;8.642;2022-08-03T12:20:03;27.70;42.80
16404;DHT22;8311;50.158;8.642;2022-08-03T12:23:03;27.80;42.90
16404;DHT22;8311;50.158;8.642;2022-08-03T12:26:01;27.80;42.90
16404;DHT22;8311;50.158;8.642;2022-08-03T12:28:54;27.80;42.90
16404;DHT22;8311;50.158;8.642;2022-08-03T12:31:48;27.80;42.90
16404;DHT22;8311;50.158;8.642;2022-08-03T12:34:46;27.80;42.90
16404;DHT22;8311;50.158;8.642;2022-08-03T12:37:39;27.70;42.80
16404;DHT22;8311;50.158;8.642;2022-08-03T12:40:41;27.80;42.90
16404;DHT22;8311;50.158;8.642;2022-08-03T12:43:34;27.80;42.90
16404;DHT22;8311;50.158;8.642;2022-08-03T12:46:32;27.80;42.90
16404;DHT22;8311;50.158;8.642;2022-08-03T12:49:26;27.80;42.90
16404;DHT22;8311;50.158;8.642;2022-08-03T12:52:22;27.80;42.90
16404;DHT22;8311;50.158;8.642;2022-08-03T12:55:19;27.80;42.90
16404;DHT22;8311;50.158;8.642;2022-08-03T12:58:28;27.80;42.90
16404;DHT22;8311;50.158;8.642;2022-08-03T13:01:24;27.80;42.90
16404;DHT22;8311;50.158;8.642;2022-08-03T13:04:29;27.80;42.90
16404;DHT22;8311;50.158;8.642;2022-08-03T13:07:25;27.80;43.00
16404;DHT22;8311;50.158;8.642;2022-08-03T13:10:28;27.80;42.90
16404;DHT22;8311;50.158;8.642;2022-08-03T13:13:36;27.80;42.90
16404;DHT22;8311;50.158;8.642;2022-08-03T13:16:30;27.80;43.00
16404;DHT22;8311;50.158;8.642;2022-08-03T13:19:23;27.80;43.00
16404;DHT22;8311;50.158;8.642;2022-08-03T13:22:17;27.80;43.00
16404;DHT22;8311;50.158;8.642;2022-08-03T13:25:12;27.80;43.00
16404;DHT22;8311;50.158;8.642;2022-08-03T13:28:06;27.80;43.00
16404;DHT22;8311;50.158;8.642;2022-08-03T13:31:05;27.80;43.00
16404;DHT22;8311;50.158;8.642;2022-08-03T13:33:59;27.80;43.00
16404;DHT22;8311;50.158;8.642;2022-08-03T13:36:53;27.80;43.00
16404;DHT22;8311;50.158;8.642;2022-08-03T13:40:04;27.80;43.00
16404;DHT22;8311;50.158;8.642;2022-08-03T13:42:59;27.80;43.00
16404;DHT22;8311;50.158;8.642;2022-08-03T13:45:53;27.80;43.00
16404;DHT22;8311;50.158;8.642;2022-08-03T13:48:49;27.80;43.00
16404;DHT22;8311;50.158;8.642;2022-08-03T13:51:42;27.80;43.00
16404;DHT22;8311;50.158;8.642;2022-08-03T13:54:35;27.80;43.00
16404;DHT22;8311;50.158;8.642;2022-08-03T13:57:28;27.80;43.00
16404;DHT22;8311;50.158;8.642;2022-08-03T14:00:42;27.80;43.00
16404;DHT22;8311;50.158;8.642;2022-08-03T14:03:35;27.80;43.00
16404;DHT22;8311;50.158;8.642;2022-08-03T14:06:28;27.80;43.00
16404;DHT22;8311;50.158;8.642;2022-08-03T14:09:22;27.80;43.20
16404;DHT22;8311;50.158;8.642;2022-08-03T14:12:15;27.80;43.40
16404;DHT22;8311;50.158;8.642;2022-08-03T14:15:09;27.80;44.00
16404;DHT22;8311;50.158;8.642;2022-08-03T14:18:05;27.80;43.40
16404;DHT22;8311;50.158;8.642;2022-08-03T14:21:06;27.80;43.20
16404;DHT22;8311;50.158;8.642;2022-08-03T14:23:59;27.80;43.00
16404;DHT22;8311;50.158;8.642;2022-08-03T14:26:52;27.80;42.90
16404;DHT22;8311;50.158;8.642;2022-08-03T14:29:56;27.80;43.00
16404;DHT22;8311;50.158;8.642;2022-08-03T14:32:52;27.80;43.10
16404;DHT22;8311;50.158;8.642;2022-08-03T14:35:53;27.90;43.30
16404;DHT22;8311;50.158;8.642;2022-08-03T14:38:47;27.90;43.40
16404;DHT22;8311;50.158;8.642;2022-08-03T14:41:40;27.80;43.50
16404;DHT22;8311;50.158;8.642;2022-08-03T14:44:33;27.90;43.60
16404;DHT22;8311;50.158;8.642;2022-08-03T14:47:26;27.90;43.80
16404;DHT22;8311;50.158;8.642;2022-08-03T14:50:19;27.90;43.70
16404;DHT22;8311;50.158;8.642;2022-08-03T14:53:33;27.90;43.80
16404;DHT22;8311;50.158;8.642;2022-08-03T14:56:26;27.90;43.80
16404;DHT22;8311;50.158;8.642;2022-08-03T14:59:19;27.90;43.80
16404;DHT22;8311;50.158;8.642;2022-08-03T15:02:13;27.90;43.80
16404;DHT22;8311;50.158;8.642;2022-08-03T15:05:14;27.90;43.80
16404;DHT22;8311;50.158;8.642;2022-08-03T15:08:07;27.90;43.70
16404;DHT22;8311;50.158;8.642;2022-08-03T15:11:02;27.90;43.50
16404;DHT22;8311;50.158;8.642;2022-08-03T15:13:55;27.90;43.50
16404;DHT22;8311;50.158;8.642;2022-08-03T15:16:48;27.90;43.50
16404;DHT22;8311;50.158;8.642;2022-08-03T15:19:41;27.90;43.50
16404;DHT22;8311;50.158;8.642;2022-08-03T15:22:54;27.90;43.60
16404;DHT22;8311;50.158;8.642;2022-08-03T15:25:47;27.90;43.80
16404;DHT22;8311;50.158;8.642;2022-08-03T15:29:01;27.90;44.50
16404;DHT22;8311;50.158;8.642;2022-08-03T15:31:55;27.90;44.00
16404;DHT22;8311;50.158;8.642;2022-08-03T15:34:49;27.90;44.10
16404;DHT22;8311;50.158;8.642;2022-08-03T15:37:43;27.90;44.10
16404;DHT22;8311;50.158;8.642;2022-08-03T15:40:37;27.90;44.20
16404;DHT22;8311;50.158;8.642;2022-08-03T15:43:30;27.90;44.20
16404;DHT22;8311;50.158;8.642;2022-08-03T15:46:30;27.90;44.30
16404;DHT22;8311;50.158;8.642;2022-08-03T15:49:24;27.90;44.40
16404;DHT22;8311;50.158;8.642;2022-08-03T15:52:17;28.00;44.60
16404;DHT22;8311;50.158;8.642;2022-08-03T15:55:10;27.90;44.60
16404;DHT22;8311;50.158;8.642;2022-08-03T15:58:08;28.00;44.70
16404;DHT22;8311;50.158;8.642;2022-08-03T16:01:22;28.00;44.70
16404;DHT22;8311;50.158;8.642;2022-08-03T16:04:17;28.00;44.80
16404;DHT22;8311;50.158;8.642;2022-08-03T16:07:10;28.00;44.70
16404;DHT22;8311;50.158;8.642;2022-08-03T16:10:06;28.00;44.70
16404;DHT22;8311;50.158;8.642;2022-08-03T16:12:59;28.00;44.80
16404;DHT22;8311;50.158;8.642;2022-08-03T16:15:53;28.00;44.80
16404;DHT22;8311;50.158;8.642;2022-08-03T16:18:46;28.00;44.80
16404;DHT22;8311;50.158;8.642;2022-08-03T16:21:40;28.00;44.70
16404;DHT22;8311;50.158;8.642;2022-08-03T16:24:39;28.00;44.70
16404;DHT22;8311;50.158;8.642;2022-08-03T16:27:32;28.00;44.70
16404;DHT22;8311;50.158;8.642;2022-08-03T16:30:45;28.00;44.60
16404;DHT22;8311;50.158;8.642;2022-08-03T16:33:39;28.00;44.60
16404;DHT22;8311;50.158;8.642;2022-08-03T16:36:32;28.00;44.60
16404;DHT22;8311;50.158;8.642;2022-08-03T16:39:27;28.00;45.20
16404;DHT22;8311;50.158;8.642;2022-08-03T16:42:21;28.00;44.50
16404;DHT22;8311;50.158;8.642;2022-08-03T16:45:14;28.00;44.50
16404;DHT22;8311;50.158;8.642;2022-08-03T16:48:07;28.00;44.60
16404;DHT22;8311;50.158;8.642;2022-08-03T16:51:00;28.00;44.50
16404;DHT22;8311;50.158;8.642;2022-08-03T16:53:54;28.00;44.50
16404;DHT22;8311;50.158;8.642;2022-08-03T16:57:05;28.00;44.60
16404;DHT22;8311;50.158;8.642;2022-08-03T16:59:59;28.00;44.70
16404;DHT22;8311;50.158;8.642;2022-08-03T17:02:54;28.00;44.70
16404;DHT22;8311;50.158;8.642;2022-08-03T17:05:49;28.00;44.80
16404;DHT22;8311;50.158;8.642;2022-08-03T17:08:43;28.00;44.90
16404;DHT22;8311;50.158;8.642;2022-08-03T17:11:48;28.00;45.10
16404;DHT22;8311;50.158;8.642;2022-08-03T17:14:44;28.00;45.10
16404;DHT22;8311;50.158;8.642;2022-08-03T17:17:43;28.00;45.10
16404;DHT22;8311;50.158;8.642;2022-08-03T17:20:46;28.00;45.10
16404;DHT22;8311;50.158;8.642;2022-08-03T17:23:46;28.10;45.30
16404;DHT22;8311;50.158;8.642;2022-08-03T17:26:43;28.10;45.30
16404;DHT22;8311;50.158;8.642;2022-08-03T17:29:47;28.10;45.30
16404;DHT22;8311;50.158;8.642;2022-08-03T17:32:41;28.10;45.30
16404;DHT22;8311;50.158;8.642;2022-08-03T17:35:48;28.00;45.40
16404;DHT22;8311;50.158;8.642;2022-08-03T17:38:50;28.10;45.40
16404;DHT22;8311;50.158;8.642;2022-08-03T17:41:44;28.10;45.00
16404;DHT22;8311;50.158;8.642;2022-08-03T17:44:42;28.00;44.60
16404;DHT22;8311;50.158;8.642;2022-08-03T17:47:40;28.10;44.40
16404;DHT22;8311;50.158;8.642;2022-08-03T17:50:40;28.00;44.30
16404;DHT22;8311;50.158;8.642;2022-08-03T17:53:38;28.00;44.20
16404;DHT22;8311;50.158;8.642;2022-08-03T17:56:42;28.00;44.10
16404;DHT22;8311;50.158;8.642;2022-08-03T17:59:47;28.00;44.00
16404;DHT22;8311;50.158;8.642;2022-08-03T18:02:53;28.00;43.90
16404;DHT22;8311;50.158;8.642;2022-08-03T18:06:11;28.00;43.90
16404;DHT22;8311;50.158;8.642;2022-08-03T18:09:19;28.00;43.90
16404;DHT22;8311;50.158;8.642;2022-08-03T18:12:39;28.00;43.80
16404;DHT22;8311;50.158;8.642;2022-08-03T18:15:38;28.00;43.80
16404;DHT22;8311;50.158;8.642;2022-08-03T18:18:35;28.00;43.80
16404;DHT22;8311;50.158;8.642;2022-08-03T18:21:30;28.00;43.80
16404;DHT22;8311;50.158;8.642;2022-08-03T18:24:44;28.00;43.80
16404;DHT22;8311;50.158;8.642;2022-08-03T18:27:39;28.00;43.80
16404;DHT22;8311;50.158;8.642;2022-08-03T18:30:37;28.00;43.70
16404;DHT22;8311;50.158;8.642;2022-08-03T18:33:47;28.00;43.70
16404;DHT22;8311;50.158;8.642;2022-08-03T18:37:01;28.00;43.70
16404;DHT22;8311;50.158;8.642;2022-08-03T18:39:58;28.00;43.70
16404;DHT22;8311;50.158;8.642;2022-08-03T18:42:52;28.00;43.70
16404;DHT22;8311;50.158;8.642;2022-08-03T18:45:50;28.00;43.70
16404;DHT22;8311;50.158;8.642;2022-08-03T18:48:54;28.00;43.70
16404;DHT22;8311;50.158;8.642;2022-08-03T18:52:02;28.00;43.70
16404;DHT22;8311;50.158;8.642;2022-08-03T18:55:18;28.00;43.70
16404;DHT22;8311;50.158;8.642;2022-08-03T18:58:34;28.00;43.70
16404;DHT22;8311;50.158;8.642;2022-08-03T19:01:38;28.00;43.70